sensor_id;sensor_type;location;lat;lon;timestamp;pressure;altitude;pressure_sealevel;temperature;humidity
57791;BME280;43621;51.798;21.588;2023-02-24T00:01:12;99183.78;;;4.24;62.13
57791;BME280;43621;51.798;21.588;2023-02-24T00:05:15;99175.75;;;4.25;62.10
57791;BME280;43621;51.798;21.588;2023-02-24T00:09:20;99172.76;;;4.26;62.11
57791;BME280;43621;51.798;21.588;2023-02-24T00:13:22;99161.00;;;4.31;62.03
57791;BME280;43621;51.798;21.588;2023-02-24T00:17:24;99150.91;;;4.37;62.04
57791;BME280;43621;51.798;21.588;2023-02-24T00:21:28;99140.78;;;4.44;61.96
57791;BME280;43621;51.798;21.588;2023-02-24T00:25:30;99135.16;;;4.43;61.87
57791;BME280;43621;51.798;21.588;2023-02-24T00:29:32;99133.42;;;4.38;61.92
57791;BME280;43621;51.798;21.588;2023-02-24T00:33:34;99124.00;;;4.33;62.02
57791;BME280;43621;51.798;21.588;2023-02-24T00:37:37;99121.85;;;4.28;61.96
57791;BME280;43621;51.798;21.588;2023-02-24T00:41:41;99117.80;;;4.19;61.95
57791;BME280;43621;51.798;21.588;2023-02-24T00:45:43;99113.35;;;4.12;61.96
57791;BME280;43621;51.798;21.588;2023-02-24T00:49:47;99106.74;;;4.06;62.07
57791;BME280;43621;51.798;21.588;2023-02-24T00:53:53;99100.94;;;3.99;62.01
57791;BME280;43621;51.798;21.588;2023-02-24T00:57:56;99097.34;;;3.92;62.05
57791;BME280;43621;51.798;21.588;2023-02-24T01:01:58;99095.75;;;3.86;62.11
57791;BME280;43621;51.798;21.588;2023-02-24T01:06:01;99093.04;;;3.83;62.25
57791;BME280;43621;51.798;21.588;2023-02-24T01:10:09;99084.73;;;3.85;62.37
57791;BME280;43621;51.798;21.588;2023-02-24T01:14:18;99078.86;;;3.92;62.52
57791;BME280;43621;51.798;21.588;2023-02-24T01:18:20;99070.23;;;3.97;62.53
57791;BME280;43621;51.798;21.588;2023-02-24T01:22:22;99065.81;;;3.96;62.67
57791;BME280;43621;51.798;21.588;2023-02-24T01:26:24;99058.05;;;3.91;62.63
57791;BME280;43621;51.798;21.588;2023-02-24T01:30:27;99049.54;;;3.87;62.83
57791;BME280;43621;51.798;21.588;2023-02-24T01:34:29;99049.12;;;3.84;62.91
57791;BME280;43621;51.798;21.588;2023-02-24T01:38:30;99043.58;;;3.82;63.13
57791;BME280;43621;51.798;21.588;2023-02-24T01:42:32;99043.48;;;3.85;63.29
57791;BME280;43621;51.798;21.588;2023-02-24T01:46:36;99041.05;;;3.90;63.39
57791;BME280;43621;51.798;21.588;2023-02-24T01:50:39;99033.66;;;3.96;63.44
57791;BME280;43621;51.798;21.588;2023-02-24T01:58:46;99031.64;;;4.17;63.41
57791;BME280;43621;51.798;21.588;2023-02-24T02:02:48;99029.82;;;4.31;63.50
57791;BME280;43621;51.798;21.588;2023-02-24T02:06:53;99020.38;;;4.45;63.56
57791;BME280;43621;51.798;21.588;2023-02-24T02:11:02;99014.93;;;4.57;63.46
57791;BME280;43621;51.798;21.588;2023-02-24T02:15:05;99007.42;;;4.64;63.42
57791;BME280;43621;51.798;21.588;2023-02-24T02:24:14;98996.09;;;4.71;63.38
57791;BME280;43621;51.798;21.588;2023-02-24T02:38:01;98977.19;;;4.74;63.53
57791;BME280;43621;51.798;21.588;2023-02-24T02:46:25;98960.02;;;4.85;63.66
57791;BME280;43621;51.798;21.588;2023-02-24T02:50:51;98954.63;;;4.94;63.80
57791;BME280;43621;51.798;21.588;2023-02-24T02:59:10;98940.66;;;5.11;64.33
57791;BME280;43621;51.798;21.588;2023-02-24T03:03:16;98943.73;;;5.14;64.01
57791;BME280;43621;51.798;21.588;2023-02-24T03:07:23;98944.92;;;5.18;64.10
57791;BME280;43621;51.798;21.588;2023-02-24T03:11:31;98946.20;;;5.24;64.14
57791;BME280;43621;51.798;21.588;2023-02-24T03:15:35;98944.61;;;5.28;64.05
57791;BME280;43621;51.798;21.588;2023-02-24T03:19:43;98942.91;;;5.31;64.07
57791;BME280;43621;51.798;21.588;2023-02-24T03:23:51;98940.50;;;5.33;63.97
57791;BME280;43621;51.798;21.588;2023-02-24T03:28:00;98938.45;;;5.39;64.01
57791;BME280;43621;51.798;21.588;2023-02-24T03:32:11;98938.23;;;5.45;64.02
57791;BME280;43621;51.798;21.588;2023-02-24T03:36:16;98927.94;;;5.53;63.99
57791;BME280;43621;51.798;21.588;2023-02-24T03:40:18;98926.23;;;5.60;64.14
57791;BME280;43621;51.798;21.588;2023-02-24T03:44:22;98918.89;;;5.63;64.18
57791;BME280;43621;51.798;21.588;2023-02-24T03:48:27;98914.31;;;5.63;64.37
57791;BME280;43621;51.798;21.588;2023-02-24T04:14:16;98879.69;;;5.62;64.48
57791;BME280;43621;51.798;21.588;2023-02-24T04:18:23;98872.33;;;5.66;64.74
57791;BME280;43621;51.798;21.588;2023-02-24T04:22:28;98862.85;;;5.74;65.03
57791;BME280;43621;51.798;21.588;2023-02-24T04:26:34;98852.10;;;5.82;64.86
57791;BME280;43621;51.798;21.588;2023-02-24T04:30:46;98846.70;;;5.90;64.82
57791;BME280;43621;51.798;21.588;2023-02-24T04:34:49;98839.98;;;5.97;65.02
57791;BME280;43621;51.798;21.588;2023-02-24T04:38:51;98832.49;;;6.01;65.01
57791;BME280;43621;51.798;21.588;2023-02-24T04:42:54;98829.14;;;6.04;65.19
57791;BME280;43621;51.798;21.588;2023-02-24T04:46:56;98824.56;;;6.05;65.16
57791;BME280;43621;51.798;21.588;2023-02-24T04:50:59;98824.53;;;6.05;65.27
57791;BME280;43621;51.798;21.588;2023-02-24T04:55:04;98818.67;;;6.07;65.38
57791;BME280;43621;51.798;21.588;2023-02-24T04:59:10;98817.01;;;6.09;65.39
57791;BME280;43621;51.798;21.588;2023-02-24T05:03:12;98814.27;;;6.13;65.50
57791;BME280;43621;51.798;21.588;2023-02-24T05:07:14;98810.11;;;6.21;65.54
57791;BME280;43621;51.798;21.588;2023-02-24T05:11:16;98805.05;;;6.28;65.69
57791;BME280;43621;51.798;21.588;2023-02-24T05:15:21;98798.43;;;6.34;65.66
57791;BME280;43621;51.798;21.588;2023-02-24T05:19:22;98795.27;;;6.40;65.70
57791;BME280;43621;51.798;21.588;2023-02-24T05:23:44;98794.30;;;6.43;65.78
57791;BME280;43621;51.798;21.588;2023-02-24T05:27:47;98794.73;;;6.46;65.97
57791;BME280;43621;51.798;21.588;2023-02-24T05:31:48;98791.08;;;6.46;66.04
57791;BME280;43621;51.798;21.588;2023-02-24T05:35:50;98787.44;;;6.43;65.98
57791;BME280;43621;51.798;21.588;2023-02-24T05:39:56;98784.83;;;6.41;65.99
57791;BME280;43621;51.798;21.588;2023-02-24T05:44:02;98787.79;;;6.40;66.01
57791;BME280;43621;51.798;21.588;2023-02-24T05:48:09;98785.70;;;6.41;66.19
57791;BME280;43621;51.798;21.588;2023-02-24T05:52:11;98787.30;;;6.42;66.41
57791;BME280;43621;51.798;21.588;2023-02-24T05:56:14;98786.17;;;6.43;66.50
57791;BME280;43621;51.798;21.588;2023-02-24T06:00:20;98783.80;;;6.46;66.62
57791;BME280;43621;51.798;21.588;2023-02-24T06:04:26;98776.33;;;6.48;66.84
57791;BME280;43621;51.798;21.588;2023-02-24T06:08:40;98768.80;;;6.49;66.94
57791;BME280;43621;51.798;21.588;2023-02-24T06:12:51;98768.19;;;6.50;67.04
57791;BME280;43621;51.798;21.588;2023-02-24T06:16:53;98760.52;;;6.53;67.17
57791;BME280;43621;51.798;21.588;2023-02-24T06:20:54;98761.95;;;6.54;67.18
57791;BME280;43621;51.798;21.588;2023-02-24T06:24:56;98760.17;;;6.56;67.28
57791;BME280;43621;51.798;21.588;2023-02-24T06:28:58;98758.02;;;6.61;67.54
57791;BME280;43621;51.798;21.588;2023-02-24T06:33:00;98757.34;;;6.68;67.75
57791;BME280;43621;51.798;21.588;2023-02-24T06:37:03;98754.80;;;6.73;67.79
57791;BME280;43621;51.798;21.588;2023-02-24T06:41:06;98749.84;;;6.78;67.95
57791;BME280;43621;51.798;21.588;2023-02-24T06:45:15;98746.67;;;6.83;67.97
57791;BME280;43621;51.798;21.588;2023-02-24T06:49:17;98745.90;;;6.90;67.99
57791;BME280;43621;51.798;21.588;2023-02-24T06:53:20;98744.77;;;6.98;68.08
57791;BME280;43621;51.798;21.588;2023-02-24T06:57:22;98744.98;;;7.02;68.12
57791;BME280;43621;51.798;21.588;2023-02-24T07:01:25;98742.02;;;7.08;68.24
57791;BME280;43621;51.798;21.588;2023-02-24T07:05:31;98742.05;;;7.15;68.30
57791;BME280;43621;51.798;21.588;2023-02-24T07:09:35;98736.85;;;7.18;68.22
57791;BME280;43621;51.798;21.588;2023-02-24T07:13:36;98730.70;;;7.23;68.23
57791;BME280;43621;51.798;21.588;2023-02-24T07:17:38;98727.86;;;7.27;68.57
57791;BME280;43621;51.798;21.588;2023-02-24T07:21:42;98726.95;;;7.25;68.83
57791;BME280;43621;51.798;21.588;2023-02-24T07:25:47;98721.40;;;7.24;68.72
57791;BME280;43621;51.798;21.588;2023-02-24T07:29:49;98720.63;;;7.21;68.70
57791;BME280;43621;51.798;21.588;2023-02-24T07:33:52;98718.25;;;7.21;68.78
57791;BME280;43621;51.798;21.588;2023-02-24T07:37:56;98715.40;;;7.21;68.81
57791;BME280;43621;51.798;21.588;2023-02-24T07:42:03;98715.70;;;7.23;68.89
57791;BME280;43621;51.798;21.588;2023-02-24T07:46:10;98714.23;;;7.26;68.90
57791;BME280;43621;51.798;21.588;2023-02-24T07:50:12;98710.94;;;7.29;69.05
57791;BME280;43621;51.798;21.588;2023-02-24T07:54:15;98705.77;;;7.31;68.96
57791;BME280;43621;51.798;21.588;2023-02-24T07:58:17;98699.16;;;7.31;69.09
57791;BME280;43621;51.798;21.588;2023-02-24T08:02:19;98697.36;;;7.33;69.30
57791;BME280;43621;51.798;21.588;2023-02-24T08:06:22;98694.73;;;7.35;69.17
57791;BME280;43621;51.798;21.588;2023-02-24T08:10:39;98690.39;;;7.37;69.41
57791;BME280;43621;51.798;21.588;2023-02-24T08:14:41;98686.00;;;7.37;69.45
57791;BME280;43621;51.798;21.588;2023-02-24T08:18:45;98685.41;;;7.36;69.50
57791;BME280;43621;51.798;21.588;2023-02-24T08:22:51;98682.51;;;7.36;69.72
57791;BME280;43621;51.798;21.588;2023-02-24T08:26:55;98685.06;;;7.38;69.73
57791;BME280;43621;51.798;21.588;2023-02-24T08:31:06;98679.43;;;7.43;69.89
57791;BME280;43621;51.798;21.588;2023-02-24T08:35:12;98670.23;;;7.50;69.97
57791;BME280;43621;51.798;21.588;2023-02-24T08:39:17;98667.11;;;7.55;70.00
57791;BME280;43621;51.798;21.588;2023-02-24T08:43:29;98661.25;;;7.60;69.95
57791;BME280;43621;51.798;21.588;2023-02-24T08:47:35;98658.90;;;7.64;70.02
57791;BME280;43621;51.798;21.588;2023-02-24T08:51:38;98656.27;;;7.67;70.04
57791;BME280;43621;51.798;21.588;2023-02-24T08:55:45;98653.09;;;7.73;70.11
57791;BME280;43621;51.798;21.588;2023-02-24T08:59:47;98647.02;;;7.80;70.08
57791;BME280;43621;51.798;21.588;2023-02-24T09:03:58;98645.63;;;7.85;70.17
57791;BME280;43621;51.798;21.588;2023-02-24T09:08:00;98643.27;;;7.88;70.22
57791;BME280;43621;51.798;21.588;2023-02-24T09:12:02;98639.79;;;7.91;70.24
57791;BME280;43621;51.798;21.588;2023-02-24T09:16:05;98632.36;;;7.96;70.21
57791;BME280;43621;51.798;21.588;2023-02-24T09:20:18;98630.83;;;8.06;70.27
57791;BME280;43621;51.798;21.588;2023-02-24T09:24:26;98624.15;;;8.17;70.37
57791;BME280;43621;51.798;21.588;2023-02-24T09:28:28;98620.19;;;8.20;70.14
57791;BME280;43621;51.798;21.588;2023-02-24T09:32:33;98613.48;;;8.21;70.21
57791;BME280;43621;51.798;21.588;2023-02-24T09:36:35;98612.23;;;8.23;70.33
57791;BME280;43621;51.798;21.588;2023-02-24T09:40:47;98608.52;;;8.20;70.39
57791;BME280;43621;51.798;21.588;2023-02-24T09:44:53;98603.17;;;8.20;70.35
57791;BME280;43621;51.798;21.588;2023-02-24T09:49:04;98596.98;;;8.22;70.45
57791;BME280;43621;51.798;21.588;2023-02-24T09:53:11;98589.69;;;8.22;70.54
57791;BME280;43621;51.798;21.588;2023-02-24T09:57:22;98589.33;;;8.21;70.56
57791;BME280;43621;51.798;21.588;2023-02-24T10:01:56;98583.22;;;8.18;70.66
57791;BME280;43621;51.798;21.588;2023-02-24T10:06:18;98577.36;;;8.21;70.55
57791;BME280;43621;51.798;21.588;2023-02-24T10:10:26;98573.40;;;8.27;70.61
57791;BME280;43621;51.798;21.588;2023-02-24T10:19:28;98564.35;;;8.39;70.63
57791;BME280;43621;51.798;21.588;2023-02-24T10:27:42;98552.34;;;8.52;70.68
57791;BME280;43621;51.798;21.588;2023-02-24T10:32:35;98544.80;;;8.51;70.81
57791;BME280;43621;51.798;21.588;2023-02-24T10:36:38;98539.33;;;8.47;70.87
57791;BME280;43621;51.798;21.588;2023-02-24T10:40:52;98532.80;;;8.40;70.96
57791;BME280;43621;51.798;21.588;2023-02-24T10:45:14;98527.13;;;8.36;70.90
57791;BME280;43621;51.798;21.588;2023-02-24T10:49:18;98520.64;;;8.32;71.09
57791;BME280;43621;51.798;21.588;2023-02-24T10:53:25;98510.42;;;8.36;71.10
57791;BME280;43621;51.798;21.588;2023-02-24T10:58:01;98509.81;;;8.38;71.30
57791;BME280;43621;51.798;21.588;2023-02-24T11:02:35;98504.59;;;8.40;71.26
57791;BME280;43621;51.798;21.588;2023-02-24T11:07:05;98494.14;;;8.40;71.05
57791;BME280;43621;51.798;21.588;2023-02-24T11:11:20;98485.62;;;8.43;71.26
57791;BME280;43621;51.798;21.588;2023-02-24T11:15:54;98478.61;;;8.49;71.30
57791;BME280;43621;51.798;21.588;2023-02-24T11:24:32;98468.61;;;8.46;71.36
57791;BME280;43621;51.798;21.588;2023-02-24T11:33:37;98452.70;;;8.37;71.35
57791;BME280;43621;51.798;21.588;2023-02-24T11:42:00;98450.61;;;8.29;71.30
57791;BME280;43621;51.798;21.588;2023-02-24T11:46:12;98445.15;;;8.33;71.39
57791;BME280;43621;51.798;21.588;2023-02-24T11:54:41;98432.90;;;8.41;71.78
57791;BME280;43621;51.798;21.588;2023-02-24T12:03:13;98429.38;;;8.53;71.73
57791;BME280;43621;51.798;21.588;2023-02-24T12:07:31;98420.66;;;8.55;71.67
57791;BME280;43621;51.798;21.588;2023-02-24T12:16:03;98413.48;;;8.62;71.73
57791;BME280;43621;51.798;21.588;2023-02-24T12:20:20;98413.57;;;8.63;71.78
57791;BME280;43621;51.798;21.588;2023-02-24T12:24:26;98407.01;;;8.68;71.77
57791;BME280;43621;51.798;21.588;2023-02-24T12:41:33;98384.11;;;8.97;71.48
57791;BME280;43621;51.798;21.588;2023-02-24T12:50:23;98366.36;;;8.89;71.44
57791;BME280;43621;51.798;21.588;2023-02-24T12:58:41;98359.52;;;8.78;71.66
57791;BME280;43621;51.798;21.588;2023-02-24T13:16:11;98357.32;;;8.46;71.33
57791;BME280;43621;51.798;21.588;2023-02-24T13:20:34;98355.48;;;8.52;71.35
57791;BME280;43621;51.798;21.588;2023-02-24T13:29:01;98351.77;;;8.60;71.18
57791;BME280;43621;51.798;21.588;2023-02-24T13:37:30;98345.04;;;8.57;71.20
57791;BME280;43621;51.798;21.588;2023-02-24T13:41:39;98344.99;;;8.58;71.16
57791;BME280;43621;51.798;21.588;2023-02-24T13:45:41;98341.14;;;8.64;71.14
57791;BME280;43621;51.798;21.588;2023-02-24T14:02:53;98335.67;;;8.58;70.88
57791;BME280;43621;51.798;21.588;2023-02-24T14:07:08;98332.38;;;8.58;70.92
57791;BME280;43621;51.798;21.588;2023-02-24T14:11:14;98323.43;;;8.62;70.92
57791;BME280;43621;51.798;21.588;2023-02-24T14:15:23;98322.73;;;8.60;70.91
57791;BME280;43621;51.798;21.588;2023-02-24T14:19:25;98321.19;;;8.48;70.84
57791;BME280;43621;51.798;21.588;2023-02-24T14:23:30;98315.77;;;8.38;70.60
57791;BME280;43621;51.798;21.588;2023-02-24T14:27:32;98306.55;;;8.37;70.76
57791;BME280;43621;51.798;21.588;2023-02-24T14:31:34;98302.59;;;8.41;70.84
57791;BME280;43621;51.798;21.588;2023-02-24T14:35:41;98297.51;;;8.60;70.93
57791;BME280;43621;51.798;21.588;2023-02-24T14:39:49;98286.70;;;8.93;71.05
57791;BME280;43621;51.798;21.588;2023-02-24T14:43:53;98284.14;;;9.13;70.80
57791;BME280;43621;51.798;21.588;2023-02-24T14:47:56;98285.00;;;9.07;70.39
57791;BME280;43621;51.798;21.588;2023-02-24T14:52:06;98285.29;;;8.89;70.25
57791;BME280;43621;51.798;21.588;2023-02-24T14:56:11;98280.42;;;8.67;70.20
57791;BME280;43621;51.798;21.588;2023-02-24T15:04:36;98264.84;;;8.43;70.45
57791;BME280;43621;51.798;21.588;2023-02-24T15:08:47;98265.99;;;8.37;70.61
57791;BME280;43621;51.798;21.588;2023-02-24T15:12:59;98262.77;;;8.30;70.63
57791;BME280;43621;51.798;21.588;2023-02-24T15:17:14;98265.55;;;8.22;70.74
57791;BME280;43621;51.798;21.588;2023-02-24T15:21:20;98259.25;;;8.11;70.78
57791;BME280;43621;51.798;21.588;2023-02-24T15:25:26;98251.06;;;8.00;70.77
57791;BME280;43621;51.798;21.588;2023-02-24T15:29:30;98255.06;;;7.89;70.75
57791;BME280;43621;51.798;21.588;2023-02-24T15:33:40;98243.79;;;7.76;70.78
57791;BME280;43621;51.798;21.588;2023-02-24T15:37:42;98244.64;;;7.69;70.97
57791;BME280;43621;51.798;21.588;2023-02-24T15:41:46;98240.14;;;7.69;71.04
57791;BME280;43621;51.798;21.588;2023-02-24T15:45:49;98239.52;;;7.70;71.23
57791;BME280;43621;51.798;21.588;2023-02-24T15:49:51;98237.11;;;7.70;71.19
57791;BME280;43621;51.798;21.588;2023-02-24T15:53:53;98231.45;;;7.64;71.14
57791;BME280;43621;51.798;21.588;2023-02-24T15:58:00;98226.31;;;7.57;71.27
57791;BME280;43621;51.798;21.588;2023-02-24T16:02:18;98215.15;;;7.47;71.25
57791;BME280;43621;51.798;21.588;2023-02-24T16:06:22;98208.94;;;7.35;71.31
57791;BME280;43621;51.798;21.588;2023-02-24T16:10:26;98211.89;;;7.26;71.47
57791;BME280;43621;51.798;21.588;2023-02-24T16:14:29;98215.11;;;7.22;71.69
57791;BME280;43621;51.798;21.588;2023-02-24T16:18:32;98216.84;;;7.24;71.78
57791;BME280;43621;51.798;21.588;2023-02-24T16:22:34;98214.02;;;7.26;71.75
57791;BME280;43621;51.798;21.588;2023-02-24T16:26:38;98208.45;;;7.26;71.80
57791;BME280;43621;51.798;21.588;2023-02-24T16:30:41;98209.26;;;7.22;72.08
57791;BME280;43621;51.798;21.588;2023-02-24T16:34:43;98207.24;;;7.17;72.17
57791;BME280;43621;51.798;21.588;2023-02-24T16:38:45;98208.23;;;7.14;72.36
57791;BME280;43621;51.798;21.588;2023-02-24T16:42:51;98210.20;;;7.12;72.21
57791;BME280;43621;51.798;21.588;2023-02-24T16:46:53;98213.16;;;7.15;72.30
57791;BME280;43621;51.798;21.588;2023-02-24T16:50:55;98199.92;;;7.13;72.32
57791;BME280;43621;51.798;21.588;2023-02-24T16:54:57;98192.40;;;7.14;72.23
57791;BME280;43621;51.798;21.588;2023-02-24T16:58:59;98191.40;;;7.17;72.33
57791;BME280;43621;51.798;21.588;2023-02-24T17:03:06;98197.70;;;7.18;72.29
57791;BME280;43621;51.798;21.588;2023-02-24T17:07:13;98197.48;;;7.17;72.26
57791;BME280;43621;51.798;21.588;2023-02-24T17:11:19;98198.33;;;7.17;72.32
57791;BME280;43621;51.798;21.588;2023-02-24T17:15:23;98192.86;;;7.16;72.21
57791;BME280;43621;51.798;21.588;2023-02-24T17:19:25;98194.98;;;7.18;72.37
57791;BME280;43621;51.798;21.588;2023-02-24T17:23:27;98190.71;;;7.18;72.42
57791;BME280;43621;51.798;21.588;2023-02-24T17:27:29;98172.82;;;7.15;72.40
57791;BME280;43621;51.798;21.588;2023-02-24T17:31:31;98164.95;;;7.08;72.49
57791;BME280;43621;51.798;21.588;2023-02-24T17:35:33;98158.05;;;6.98;72.34
57791;BME280;43621;51.798;21.588;2023-02-24T17:39:35;98160.45;;;6.90;72.27
57791;BME280;43621;51.798;21.588;2023-02-24T17:43:37;98155.49;;;6.89;72.45
57791;BME280;43621;51.798;21.588;2023-02-24T17:47:39;98152.30;;;6.90;72.44
57791;BME280;43621;51.798;21.588;2023-02-24T17:51:41;98140.52;;;6.90;72.48
57791;BME280;43621;51.798;21.588;2023-02-24T17:55:43;98134.75;;;6.89;72.36
57791;BME280;43621;51.798;21.588;2023-02-24T17:59:45;98123.77;;;6.86;72.42
57791;BME280;43621;51.798;21.588;2023-02-24T18:03:47;98115.69;;;6.80;72.35
57791;BME280;43621;51.798;21.588;2023-02-24T18:07:49;98119.75;;;6.71;72.13
57791;BME280;43621;51.798;21.588;2023-02-24T18:11:51;98125.94;;;6.58;72.04
57791;BME280;43621;51.798;21.588;2023-02-24T18:15:53;98120.48;;;6.46;72.12
57791;BME280;43621;51.798;21.588;2023-02-24T18:19:55;98119.20;;;6.33;72.19
57791;BME280;43621;51.798;21.588;2023-02-24T18:23:57;98118.78;;;6.24;72.36
57791;BME280;43621;51.798;21.588;2023-02-24T18:27:59;98113.86;;;6.20;72.59
57791;BME280;43621;51.798;21.588;2023-02-24T18:32:01;98107.20;;;6.17;72.71
57791;BME280;43621;51.798;21.588;2023-02-24T18:36:05;98091.10;;;6.10;72.72
57791;BME280;43621;51.798;21.588;2023-02-24T18:40:07;98084.12;;;6.00;72.56
57791;BME280;43621;51.798;21.588;2023-02-24T18:44:10;98085.66;;;5.97;72.75
57791;BME280;43621;51.798;21.588;2023-02-24T18:48:12;98082.20;;;5.97;72.82
57791;BME280;43621;51.798;21.588;2023-02-24T18:52:14;98082.55;;;5.99;72.93
57791;BME280;43621;51.798;21.588;2023-02-24T18:56:20;98076.81;;;6.01;72.93
57791;BME280;43621;51.798;21.588;2023-02-24T19:00:22;98075.17;;;5.98;72.89
57791;BME280;43621;51.798;21.588;2023-02-24T19:04:24;98059.71;;;5.92;72.85
57791;BME280;43621;51.798;21.588;2023-02-24T19:08:26;98057.14;;;5.88;72.82
57791;BME280;43621;51.798;21.588;2023-02-24T19:12:28;98063.81;;;5.87;72.97
57791;BME280;43621;51.798;21.588;2023-02-24T19:16:31;98067.26;;;5.88;73.11
57791;BME280;43621;51.798;21.588;2023-02-24T19:20:33;98071.44;;;5.86;73.22
57791;BME280;43621;51.798;21.588;2023-02-24T19:24:35;98070.00;;;5.88;73.25
57791;BME280;43621;51.798;21.588;2023-02-24T19:28:37;98067.73;;;5.93;73.39
57791;BME280;43621;51.798;21.588;2023-02-24T19:32:39;98057.39;;;5.98;73.33
57791;BME280;43621;51.798;21.588;2023-02-24T19:36:41;98063.44;;;6.01;73.22
57791;BME280;43621;51.798;21.588;2023-02-24T19:40:43;98058.56;;;6.03;73.13
57791;BME280;43621;51.798;21.588;2023-02-24T19:44:45;98051.72;;;6.04;73.01
57791;BME280;43621;51.798;21.588;2023-02-24T19:48:47;98055.27;;;6.00;72.99
57791;BME280;43621;51.798;21.588;2023-02-24T19:52:49;98044.81;;;5.95;73.05
57791;BME280;43621;51.798;21.588;2023-02-24T19:56:51;98038.11;;;5.92;73.10
57791;BME280;43621;51.798;21.588;2023-02-24T20:01:06;98045.54;;;5.88;73.16
57791;BME280;43621;51.798;21.588;2023-02-24T20:05:09;98034.48;;;5.85;73.03
57791;BME280;43621;51.798;21.588;2023-02-24T20:09:17;98033.60;;;5.82;73.03
57791;BME280;43621;51.798;21.588;2023-02-24T20:13:21;98024.38;;;5.80;72.95
57791;BME280;43621;51.798;21.588;2023-02-24T20:17:23;98006.08;;;5.82;73.04
57791;BME280;43621;51.798;21.588;2023-02-24T20:21:25;98008.64;;;5.82;72.93
57791;BME280;43621;51.798;21.588;2023-02-24T20:25:28;98011.77;;;5.83;73.10
57791;BME280;43621;51.798;21.588;2023-02-24T20:29:31;98013.98;;;5.79;72.97
57791;BME280;43621;51.798;21.588;2023-02-24T20:33:34;98010.34;;;5.74;72.97
57791;BME280;43621;51.798;21.588;2023-02-24T20:37:36;97996.67;;;5.65;72.95
57791;BME280;43621;51.798;21.588;2023-02-24T20:41:38;97992.40;;;5.58;73.05
57791;BME280;43621;51.798;21.588;2023-02-24T20:45:40;97995.38;;;5.56;73.15
57791;BME280;43621;51.798;21.588;2023-02-24T20:49:42;97996.69;;;5.60;73.13
57791;BME280;43621;51.798;21.588;2023-02-24T20:53:45;97992.06;;;5.63;73.19
57791;BME280;43621;51.798;21.588;2023-02-24T20:57:48;97978.61;;;5.66;73.08
57791;BME280;43621;51.798;21.588;2023-02-24T21:01:53;97972.30;;;5.67;72.97
57791;BME280;43621;51.798;21.588;2023-02-24T21:05:55;97973.45;;;5.70;73.07
57791;BME280;43621;51.798;21.588;2023-02-24T21:09:57;97975.84;;;5.76;73.11
57791;BME280;43621;51.798;21.588;2023-02-24T21:13:59;97969.41;;;5.78;72.92
57791;BME280;43621;51.798;21.588;2023-02-24T21:18:01;97976.86;;;5.81;72.95
57791;BME280;43621;51.798;21.588;2023-02-24T21:22:04;97966.86;;;5.82;72.88
57791;BME280;43621;51.798;21.588;2023-02-24T21:26:07;97960.77;;;5.84;73.02
57791;BME280;43621;51.798;21.588;2023-02-24T21:30:10;97954.03;;;5.82;72.82
57791;BME280;43621;51.798;21.588;2023-02-24T21:34:14;97923.86;;;5.73;72.63
57791;BME280;43621;51.798;21.588;2023-02-24T21:38:17;97919.44;;;5.65;72.72
57791;BME280;43621;51.798;21.588;2023-02-24T21:42:18;97931.38;;;5.65;72.89
57791;BME280;43621;51.798;21.588;2023-02-24T21:46:23;97924.59;;;5.63;72.80
57791;BME280;43621;51.798;21.588;2023-02-24T21:50:28;97929.32;;;5.60;72.72
57791;BME280;43621;51.798;21.588;2023-02-24T21:54:31;97918.71;;;5.61;72.84
57791;BME280;43621;51.798;21.588;2023-02-24T21:58:33;97911.38;;;5.63;72.86
57791;BME280;43621;51.798;21.588;2023-02-24T22:02:35;97892.83;;;5.67;72.83
57791;BME280;43621;51.798;21.588;2023-02-24T22:06:37;97890.71;;;5.67;72.71
57791;BME280;43621;51.798;21.588;2023-02-24T22:10:40;97897.14;;;5.72;72.90
57791;BME280;43621;51.798;21.588;2023-02-24T22:14:41;97893.25;;;5.71;72.74
57791;BME280;43621;51.798;21.588;2023-02-24T22:18:44;97890.63;;;5.68;72.70
57791;BME280;43621;51.798;21.588;2023-02-24T22:22:46;97893.37;;;5.62;72.71
57791;BME280;43621;51.798;21.588;2023-02-24T22:26:48;97885.53;;;5.54;72.70
57791;BME280;43621;51.798;21.588;2023-02-24T22:30:55;97862.98;;;5.50;72.80
57791;BME280;43621;51.798;21.588;2023-02-24T22:34:57;97861.42;;;5.50;72.88
57791;BME280;43621;51.798;21.588;2023-02-24T22:39:00;97864.36;;;5.48;72.77
57791;BME280;43621;51.798;21.588;2023-02-24T22:43:03;97865.80;;;5.49;72.78
57791;BME280;43621;51.798;21.588;2023-02-24T22:47:05;97852.52;;;5.52;72.80
57791;BME280;43621;51.798;21.588;2023-02-24T22:51:09;97845.79;;;5.54;72.70
57791;BME280;43621;51.798;21.588;2023-02-24T22:55:11;97846.96;;;5.59;72.97
57791;BME280;43621;51.798;21.588;2023-02-24T22:59:13;97834.95;;;5.59;72.79
57791;BME280;43621;51.798;21.588;2023-02-24T23:03:17;97813.23;;;5.55;72.60
57791;BME280;43621;51.798;21.588;2023-02-24T23:07:20;97798.31;;;5.49;72.50
57791;BME280;43621;51.798;21.588;2023-02-24T23:11:27;97796.85;;;5.41;72.51
57791;BME280;43621;51.798;21.588;2023-02-24T23:15:35;97796.65;;;5.37;72.61
57791;BME280;43621;51.798;21.588;2023-02-24T23:19:39;97794.12;;;5.34;72.68
57791;BME280;43621;51.798;21.588;2023-02-24T23:23:41;97779.80;;;5.36;72.80
57791;BME280;43621;51.798;21.588;2023-02-24T23:27:43;97780.20;;;5.40;72.82
57791;BME280;43621;51.798;21.588;2023-02-24T23:31:45;97779.92;;;5.48;73.01
57791;BME280;43621;51.798;21.588;2023-02-24T23:35:47;97749.77;;;5.53;72.80
57791;BME280;43621;51.798;21.588;2023-02-24T23:39:49;97732.02;;;5.53;72.68
57791;BME280;43621;51.798;21.588;2023-02-24T23:43:51;97728.68;;;5.54;72.74
57791;BME280;43621;51.798;21.588;2023-02-24T23:47:53;97724.23;;;5.56;72.72
57791;BME280;43621;51.798;21.588;2023-02-24T23:51:55;97723.42;;;5.62;72.84
57791;BME280;43621;51.798;21.588;2023-02-24T23:55:58;97724.16;;;5.71;72.98
